Dresden, OH (43821)

7:28 AM EDT on September 03, 2015 (GMT -0400)
FranklinTownship TR 479 | | Change Station
CLOSE
Current Station
Personal Weather Station
Location: Coshocton, OH
Elevation: 866 ft
Nearby Weather Stations

Elev 866 ft 40.21 °N, 81.89 °W | Updated 10 seconds ago

Partly Cloudy
Partly Cloudy
68.0 °F
Feels Like 68.0 °F
N
0.0
Wind Variable Wind from NW
Gusts 0.0 mph

Today
High -- | Low -- °F
--% Chance of Precip.
Yesterday
High -- | Low -- °F
Precip. -- in
6:57 AM 7:56 PM
Waning Gibbous, 71% visible
Pressure 30.02 in
Visibility 2.5 miles
Clouds Overcast 9000 ft
Dew Point 68 °F
Humidity 99%
Rainfall 0.00 in
Snow Depth Not available.
UV 0.0 out of 12
Pollen 10.40 out of 12
Air Quality Not available.
Flu Activity Not available.
SPECI KZZV 031122Z AUTO 00000KT 2 1/2SM BR OVC090 20/18 A3002 RMK AO2 T02000178 TSNO
Pressure 30.02 in
Visibility 2.5 miles
Clouds Overcast 9000 ft
Dew Point 68 °F
Humidity 99%
Rainfall 0.00 in
Snow Depth Not available.
UV 0.0 out of 12
Pollen 10.40 out of 12
Air Quality Not available.
Flu Activity Not available.
SPECI KZZV 031122Z AUTO 00000KT 2 1/2SM BR OVC090 20/18 A3002 RMK AO2 T02000178 TSNO

10-Day Weather Forecast

×

Almanac

Astronomy

Sep. 03, 2015 Rise Set
Actual Time
Civil Twilight
Nautical Twilight
Astronomical Twilight
Moon
Length of Visible Light
Length of Day
Tomorrow will be .
, % of the Moon is Illuminated

Today's Extremes

State Highs State Lows

Community

WunderPhotos

Upload Photos

1,851,933 photos uploaded!

WunderBlogs® & News

Nearby

Air Quality

  Air Quality AQ Index Pollutant
Not available.

Snow Depth

Station Depth Elevation

Earthquake Activity

City Distance Mag. Time & Date
Minimum magnitude displayed is 2.5.

Coastal Water Temperatures

Place Temperature

Stations

Nearby Weather Stations

Station Location Temp. Windchill Dew Point Humidity Wind Precip. Elev Updated Type